Time;durP1;ratioP1;P1;durP2;ratioP2;P2;SDS_P1;SDS_P2;PMS_P1;PMS_P2;Temp;Humidity;BMP_temperature;BMP_pressure;BME280_temperature;BME280_humidity;BME280_pressure;Samples;Min_cycle;Max_cycle;Signal;HPM_P1;HPM_P2
2023/12/09 00:01:17;;;;;;;5.20;4.30;;;;;;;-147.86;100.00;46229.16;105783;1254;71350;-43
2023/12/09 00:03:45;;;;;;;8.70;4.80;;;;;;;-147.86;100.00;46231.12;105778;1251;60575;-47
2023/12/09 00:06:13;;;;;;;5.60;4.60;;;;;;;-147.86;100.00;46229.95;105670;1256;60399;-46
2023/12/09 00:08:41;;;;;;;8.70;4.70;;;;;;;-147.86;100.00;46231.91;105509;1251;72544;-45
2023/12/09 00:11:09;;;;;;;8.10;4.40;;;;;;;-147.86;100.00;46233.86;105614;1251;63224;-43
2023/12/09 00:13:36;;;;;;;6.10;4.40;;;;;;;-147.86;100.00;46230.34;105826;1254;71403;-46
2023/12/09 00:16:04;;;;;;;6.50;5.00;;;;;;;-147.86;100.00;46231.91;105767;1251;60447;-45
2023/12/09 00:18:33;;;;;;;8.90;5.10;;;;;;;-147.86;100.00;46233.09;105838;1251;60344;-43
2023/12/09 00:21:01;;;;;;;7.20;4.80;;;;;;;-147.86;100.00;46235.04;105927;1251;72555;-46
2023/12/09 00:23:28;;;;;;;6.80;4.30;;;;;;;-147.86;100.00;46234.65;105802;1251;63885;-47
2023/12/09 00:25:56;;;;;;;5.10;4.20;;;;;;;-147.86;100.00;46235.82;105849;1251;72644;-43
2023/12/09 00:28:24;;;;;;;7.20;4.90;;;;;;;-147.86;100.00;46237.00;105898;1254;60509;-44
2023/12/09 00:30:51;;;;;;;6.90;4.30;;;;;;;-147.86;100.00;46235.82;105788;1251;60359;-45
2023/12/09 00:33:19;;;;;;;6.10;4.70;;;;;;;-147.86;100.00;46233.08;105829;1257;72884;-41
2023/12/09 00:35:47;;;;;;;7.40;4.70;;;;;;;-147.86;100.00;46233.87;105790;1257;63993;-42
2023/12/09 00:38:15;;;;;;;5.80;4.30;;;;;;;-147.86;100.00;46237.00;105839;1251;72695;-44
2023/12/09 00:40:42;;;;;;;7.20;4.90;;;;;;;-147.86;100.00;46236.22;105789;1254;60414;-44
2023/12/09 00:43:10;;;;;;;6.30;4.70;;;;;;;-147.86;100.00;46236.61;105825;1257;60434;-46
2023/12/09 00:45:38;;;;;;;5.90;4.50;;;;;;;-147.86;100.00;46235.43;105800;1251;72663;-45
2023/12/09 00:48:05;;;;;;;5.30;4.00;;;;;;;-147.86;100.00;46237.39;105795;1257;62932;-45
2023/12/09 00:50:33;;;;;;;6.70;4.90;;;;;;;-147.86;100.00;46237.79;105826;1254;71472;-43
2023/12/09 00:53:01;;;;;;;5.60;4.40;;;;;;;-147.86;100.00;46237.00;105835;1258;60523;-40
2023/12/09 00:55:29;;;;;;;5.40;4.20;;;;;;;-147.86;100.00;46237.79;105816;1253;60341;-41
2023/12/09 00:57:57;;;;;;;5.90;4.40;;;;;;;-147.86;100.00;46238.96;105817;1251;72618;-41
2023/12/09 01:00:27;;;;;;;8.10;4.80;;;;;;;-147.86;100.00;46237.79;105810;1251;65165;-41
2023/12/09 01:02:55;;;;;;;7.10;4.70;;;;;;;-147.86;100.00;46236.61;105799;1254;71398;-41
2023/12/09 01:05:23;;;;;;;5.70;4.50;;;;;;;-147.86;100.00;46235.83;105798;1254;60449;-41
2023/12/09 01:07:51;;;;;;;7.90;4.70;;;;;;;-147.86;100.00;46234.65;105833;1257;60425;-42
2023/12/09 01:10:19;;;;;;;6.10;4.80;;;;;;;-147.86;100.00;46234.65;105794;1256;73804;-43
2023/12/09 01:12:47;;;;;;;7.60;4.30;;;;;;;-147.86;100.00;46233.86;105867;1251;64079;-42
2023/12/09 01:15:15;;;;;;;7.00;4.70;;;;;;;-147.86;100.00;46233.48;105802;1258;71398;-42
2023/12/09 01:17:43;;;;;;;5.50;4.50;;;;;;;-147.86;100.00;46235.43;105867;1254;60463;-46
2023/12/09 01:20:14;;;;;;;5.60;4.80;;;;;;;-147.86;100.00;46233.87;105805;1256;60457;-41
2023/12/09 01:22:41;;;;;;;6.80;5.20;;;;;;;-147.86;100.00;46233.87;105875;1256;73780;-45
2023/12/09 01:25:09;;;;;;;6.90;4.60;;;;;;;-147.86;100.00;46234.65;105789;1251;65131;-40
2023/12/09 01:27:37;;;;;;;7.40;5.30;;;;;;;-147.86;100.00;46236.61;105870;1256;72646;-40
2023/12/09 01:30:05;;;;;;;5.80;5.10;;;;;;;-147.86;100.00;46237.00;105847;1259;60463;-42
2023/12/09 01:32:33;;;;;;;7.30;5.40;;;;;;;-147.86;100.00;46234.65;105878;1256;60448;-41
2023/12/09 01:35:02;;;;;;;6.50;4.80;;;;;;;-147.86;100.00;46235.43;105788;1251;72628;-41
2023/12/09 01:37:30;;;;;;;5.90;4.90;;;;;;;-147.86;100.00;46232.69;105943;1256;65173;-43
2023/12/09 01:39:57;;;;;;;6.40;4.30;;;;;;;-147.86;100.00;46233.87;105844;1256;72690;-45
2023/12/09 01:42:25;;;;;;;9.50;5.70;;;;;;;-147.86;100.00;46234.65;105832;1258;60828;-44
2023/12/09 01:44:53;;;;;;;7.80;5.60;;;;;;;-147.86;100.00;46234.26;105850;1256;60487;-43
2023/12/09 01:47:21;;;;;;;11.10;5.20;;;;;;;-147.86;100.00;46234.65;105853;1251;72627;-45
2023/12/09 01:49:49;;;;;;;8.80;5.50;;;;;;;-147.86;100.00;46233.08;105823;1251;65227;-40
2023/12/09 01:52:17;;;;;;;6.30;4.90;;;;;;;-147.86;100.00;46232.69;105685;1258;71435;-42
2023/12/09 01:54:45;;;;;;;6.50;4.60;;;;;;;-147.86;100.00;46231.52;105800;1251;60818;-41
2023/12/09 01:57:12;;;;;;;5.90;4.90;;;;;;;-147.86;100.00;46231.12;105795;1251;60342;-44
2023/12/09 01:59:40;;;;;;;8.00;5.20;;;;;;;-147.86;100.00;46229.16;105866;1251;73815;-39
2023/12/09 02:02:08;;;;;;;6.80;4.90;;;;;;;-147.86;100.00;46227.99;105814;1252;65298;-43
2023/12/09 02:04:35;;;;;;;8.60;5.20;;;;;;;-147.86;100.00;46228.77;105830;1260;72294;-43
2023/12/09 02:07:03;;;;;;;7.00;4.90;;;;;;;-147.86;100.00;46226.42;105800;1259;60555;-41
2023/12/09 02:09:32;;;;;;;9.30;4.90;;;;;;;-147.86;100.00;46230.34;105845;1260;60494;-46
2023/12/09 02:12:06;;;;;;;11.60;9.70;;;;;;;-147.86;100.00;46229.16;105828;1251;72621;-44
2023/12/09 02:15:06;;;;;;;7.00;4.70;;;;;;;-147.86;100.00;46226.42;105878;1257;64083;-39
2023/12/09 02:17:43;;;;;;;7.80;5.60;;;;;;;-147.86;100.00;46232.30;105833;1254;71414;-40
2023/12/09 02:20:11;;;;;;;7.30;4.80;;;;;;;-147.86;100.00;46231.52;105879;1257;60597;-44
2023/12/09 02:22:39;;;;;;;6.50;5.60;;;;;;;-147.86;100.00;46228.38;105860;1259;60577;-44
2023/12/09 02:25:07;;;;;;;6.80;5.00;;;;;;;-147.86;100.00;46225.64;105921;1251;73881;-41
2023/12/09 02:27:51;;;;;;;5.20;4.70;;;;;;;-147.86;100.00;46227.20;105856;1258;65248;-43
2023/12/09 02:30:30;;;;;;;5.90;4.50;;;;;;;-147.86;100.00;46225.63;105836;1259;71555;-40
2023/12/09 02:32:58;;;;;;;7.10;4.60;;;;;;;-147.86;100.00;46224.85;105911;1254;60409;-43
2023/12/09 02:35:26;;;;;;;9.40;5.30;;;;;;;-147.86;100.00;46224.85;105799;1251;60471;-41
2023/12/09 02:37:55;;;;;;;11.70;6.00;;;;;;;-147.86;100.00;46221.32;105732;1251;72665;-43
2023/12/09 02:40:23;;;;;;;8.70;5.40;;;;;;;-147.86;100.00;46223.29;105852;1251;65211;-41
2023/12/09 02:42:51;;;;;;;9.00;5.30;;;;;;;-147.86;100.00;46220.93;105929;1254;71668;-41
2023/12/09 02:45:19;;;;;;;8.90;5.00;;;;;;;-147.86;100.00;46220.93;105718;1254;60438;-43
2023/12/09 02:47:47;;;;;;;7.00;5.00;;;;;;;-147.86;100.00;46219.37;105749;1258;60309;-43
2023/12/09 02:50:15;;;;;;;8.40;5.50;;;;;;;-147.86;100.00;46220.54;105896;1251;72635;-41
2023/12/09 02:52:43;;;;;;;11.20;6.50;;;;;;;-147.86;100.00;46219.76;105872;1251;65158;-41
2023/12/09 02:55:11;;;;;;;9.90;6.10;;;;;;;-147.86;100.00;46219.76;105830;1257;71436;-41
2023/12/09 02:57:38;;;;;;;8.70;6.00;;;;;;;-147.86;100.00;46221.32;105826;1254;60555;-40
2023/12/09 03:00:07;;;;;;;10.70;5.80;;;;;;;-147.86;100.00;46220.54;105833;1259;60421;-41
2023/12/09 03:02:35;;;;;;;8.50;6.20;;;;;;;-147.86;100.00;46217.41;105992;1256;73872;-44
2023/12/09 03:05:02;;;;;;;9.90;5.90;;;;;;;-147.86;100.00;46217.80;105838;1251;64031;-44
2023/12/09 03:07:30;;;;;;;6.70;5.50;;;;;;;-147.86;100.00;46216.23;105872;1254;71375;-44
2023/12/09 03:09:58;;;;;;;8.70;5.40;;;;;;;-147.86;100.00;46217.41;105817;1255;60515;-40
2023/12/09 03:12:26;;;;;;;10.20;5.40;;;;;;;-147.86;100.00;46217.02;105833;1251;60318;-43
2023/12/09 03:14:54;;;;;;;10.00;5.70;;;;;;;-147.86;100.00;46218.20;105847;1251;72633;-43
2023/12/09 03:17:22;;;;;;;8.60;5.60;;;;;;;-147.86;100.00;46215.45;105877;1257;65129;-44
2023/12/09 03:19:50;;;;;;;8.40;5.70;;;;;;;-147.86;100.00;46215.05;105824;1258;71376;-43
2023/12/09 03:22:17;;;;;;;13.30;5.50;;;;;;;-147.86;100.00;46213.88;105889;1257;60488;-43
2023/12/09 03:24:45;;;;;;;9.90;5.90;;;;;;;-147.86;100.00;46214.66;105923;1256;60445;-41
2023/12/09 03:27:13;;;;;;;10.40;5.50;;;;;;;-147.86;100.00;46213.10;105820;1257;73811;-43
2023/12/09 03:29:40;;;;;;;7.90;5.40;;;;;;;-147.86;100.00;46211.92;105859;1256;65126;-44
2023/12/09 03:32:08;;;;;;;8.10;6.00;;;;;;;-147.86;100.00;46214.27;105890;1251;72074;-45
2023/12/09 03:34:36;;;;;;;11.20;5.90;;;;;;;-147.86;100.00;46214.66;105866;1251;60484;-44
2023/12/09 03:37:03;;;;;;;8.90;5.70;;;;;;;-147.86;100.00;46213.10;105861;1256;60447;-42
2023/12/09 03:39:31;;;;;;;9.90;5.50;;;;;;;-147.86;100.00;46212.31;105848;1257;72254;-45
2023/12/09 03:41:59;;;;;;;8.30;5.80;;;;;;;-147.86;100.00;46213.49;105842;1259;65176;-41
2023/12/09 03:44:26;;;;;;;13.50;5.60;;;;;;;-147.86;100.00;46211.14;105867;1257;71390;-44
2023/12/09 03:46:54;;;;;;;11.40;5.20;;;;;;;-147.86;100.00;46210.75;105863;1251;60788;-45
2023/12/09 03:49:22;;;;;;;6.70;5.10;;;;;;;-147.86;100.00;46211.14;105852;1251;60322;-45
2023/12/09 03:51:49;;;;;;;12.00;6.30;;;;;;;-147.86;100.00;46210.35;105838;1251;72656;-43
2023/12/09 03:54:17;;;;;;;12.20;6.00;;;;;;;-147.86;100.00;46211.14;105842;1251;65122;-43
2023/12/09 03:56:45;;;;;;;8.40;5.80;;;;;;;-147.86;100.00;46211.14;105831;1259;71398;-45
2023/12/09 03:59:12;;;;;;;8.90;6.10;;;;;;;-147.86;100.00;46208.40;105913;1254;61248;-41
2023/12/09 04:01:50;;;;;;;7.50;5.90;;;;;;;-147.86;100.00;46210.35;105865;1256;60329;-44
2023/12/09 04:04:17;;;;;;;8.70;5.60;;;;;;;-147.86;100.00;46210.36;105907;1256;73797;-42
2023/12/09 04:06:45;;;;;;;12.90;6.50;;;;;;;-147.86;100.00;46209.96;105930;1253;63986;-43
2023/12/09 04:09:13;;;;;;;17.30;6.50;;;;;;;-147.86;100.00;46208.00;105950;1256;71452;-45
2023/12/09 04:11:43;;;;;;;10.00;6.30;;;;;;;-147.86;100.00;46208.01;105892;1257;60533;-42
2023/12/09 04:14:10;;;;;;;14.20;6.10;;;;;;;-147.86;100.00;46206.04;105881;1251;60430;-42
2023/12/09 04:16:38;;;;;;;10.20;6.40;;;;;;;-147.86;100.00;46206.04;105841;1258;72893;-42
2023/12/09 04:19:05;;;;;;;7.80;5.50;;;;;;;-147.86;100.00;46206.82;105818;1251;63614;-44
2023/12/09 04:21:36;;;;;;;11.00;6.80;;;;;;;-147.86;100.00;46206.82;105915;1254;71362;-41
2023/12/09 04:24:04;;;;;;;11.10;6.90;;;;;;;-147.86;100.00;46206.83;105835;1255;60524;-44
2023/12/09 04:26:32;;;;;;;15.20;6.30;;;;;;;-147.86;100.00;46207.22;105910;1251;60459;-45
2023/12/09 04:29:00;;;;;;;14.80;6.90;;;;;;;-147.86;100.00;46206.43;105894;1258;72636;-42
2023/12/09 04:31:27;;;;;;;12.30;6.80;;;;;;;-147.86;100.00;46204.87;105880;1251;65284;-41
2023/12/09 04:33:55;;;;;;;10.30;7.20;;;;;;;-147.86;100.00;46205.26;105820;1257;72612;-41
2023/12/09 04:36:24;;;;;;;13.20;7.70;;;;;;;-147.86;100.00;46202.52;105869;1260;60453;-44
2023/12/09 04:38:51;;;;;;;17.30;9.00;;;;;;;-147.86;100.00;46203.70;105876;1258;60979;-45
2023/12/09 04:41:19;;;;;;;17.90;9.70;;;;;;;-147.86;100.00;46202.13;105923;1251;72530;-41
2023/12/09 04:43:47;;;;;;;16.40;8.10;;;;;;;-147.86;100.00;46203.30;105846;1257;65181;-42
2023/12/09 04:46:14;;;;;;;13.20;6.60;;;;;;;-147.86;100.00;46201.73;105863;1254;72620;-44
2023/12/09 04:48:43;;;;;;;11.00;6.70;;;;;;;-147.86;100.00;46201.34;105993;1254;60463;-46
2023/12/09 04:51:11;;;;;;;10.80;7.20;;;;;;;-147.86;100.00;46199.38;105916;1257;60421;-42
2023/12/09 04:53:38;;;;;;;13.80;7.30;;;;;;;-147.86;100.00;46201.73;105856;1251;72621;-46
2023/12/09 04:56:08;;;;;;;12.70;7.60;;;;;;;-147.86;100.00;46200.95;105864;1257;63988;-42
2023/12/09 04:58:36;;;;;;;16.60;7.40;;;;;;;-147.86;100.00;46200.55;105876;1253;71411;-42
2023/12/09 05:01:03;;;;;;;19.10;7.70;;;;;;;-147.86;100.00;46198.60;105850;1254;61280;-41
2023/12/09 05:03:31;;;;;;;12.20;8.20;;;;;;;-147.86;100.00;46200.16;105878;1251;60617;-42
2023/12/09 05:06:00;;;;;;;10.00;7.10;;;;;;;-147.86;100.00;46200.16;105887;1253;72594;-44
2023/12/09 05:08:28;;;;;;;12.30;6.60;;;;;;;-147.86;100.00;46198.99;105890;1260;63941;-44
2023/12/09 05:10:56;;;;;;;12.00;7.20;;;;;;;-147.86;100.00;46195.46;105855;1257;71371;-41
2023/12/09 05:13:24;;;;;;;14.80;7.70;;;;;;;-147.86;100.00;46198.99;105877;1255;60562;-44
2023/12/09 05:15:51;;;;;;;14.40;7.80;;;;;;;-147.86;100.00;46200.16;105891;1257;60390;-46
2023/12/09 05:18:19;;;;;;;13.60;7.40;;;;;;;-147.86;100.00;46196.25;105835;1257;73825;-42
2023/12/09 05:20:47;;;;;;;14.10;7.20;;;;;;;-147.86;100.00;46194.68;105887;1255;64012;-43
2023/12/09 05:23:15;;;;;;;13.50;7.70;;;;;;;-147.86;100.00;46195.86;105879;1257;72611;-44
2023/12/09 05:25:43;;;;;;;13.30;7.50;;;;;;;-147.86;100.00;46193.11;105853;1254;60799;-44
2023/12/09 05:28:11;;;;;;;15.10;8.70;;;;;;;-147.86;100.00;46193.11;105864;1257;60504;-42
2023/12/09 05:30:40;;;;;;;14.80;8.40;;;;;;;-147.86;100.00;46193.50;105833;1254;72675;-44
2023/12/09 05:33:08;;;;;;;15.90;8.20;;;;;;;-147.86;100.00;46193.11;105865;1257;63932;-46
2023/12/09 05:35:36;;;;;;;15.20;7.80;;;;;;;-147.86;100.00;46194.29;105824;1257;71431;-42
2023/12/09 05:38:03;;;;;;;17.30;7.90;;;;;;;-147.86;100.00;46192.72;105829;1254;60536;-40
2023/12/09 05:40:31;;;;;;;13.80;8.30;;;;;;;-147.86;100.00;46189.59;105956;1257;60418;-44
2023/12/09 05:43:02;;;;;;;13.40;8.00;;;;;;;-147.86;100.00;46193.11;105825;1252;72607;-42
2023/12/09 05:45:30;;;;;;;13.60;7.80;;;;;;;-147.86;100.00;46190.76;105818;1253;65175;-44
2023/12/09 05:47:58;;;;;;;14.30;8.50;;;;;;;-147.86;100.00;46187.23;105843;1254;71353;-43
2023/12/09 05:50:26;;;;;;;15.70;8.40;;;;;;;-147.86;100.00;46188.80;105837;1260;60791;-41
2023/12/09 05:52:53;;;;;;;16.10;8.60;;;;;;;-147.86;100.00;46191.93;105852;1254;60549;-42
2023/12/09 05:55:21;;;;;;;12.90;7.90;;;;;;;-147.86;100.00;46188.80;105846;1257;73795;-44
2023/12/09 05:57:49;;;;;;;16.60;9.30;;;;;;;-147.86;100.00;46186.45;105843;1254;63399;-44
2023/12/09 06:00:16;;;;;;;17.50;8.60;;;;;;;-147.86;100.00;46187.23;105866;1254;72645;-44
2023/12/09 06:02:45;;;;;;;14.50;8.60;;;;;;;-147.86;100.00;46186.84;105829;1254;60553;-42
2023/12/09 06:05:13;;;;;;;17.40;10.10;;;;;;;-147.86;100.00;46188.80;105838;1257;60338;-43
2023/12/09 06:07:41;;;;;;;17.10;9.20;;;;;;;-147.86;100.00;46188.02;105892;1256;72184;-45
2023/12/09 06:10:09;;;;;;;16.10;8.30;;;;;;;-147.86;100.00;46185.27;105846;1260;64063;-45
2023/12/09 06:12:41;;;;;;;18.00;9.10;;;;;;;-147.86;100.00;46185.67;105776;1254;71705;-41
2023/12/09 06:15:09;;;;;;;17.00;8.70;;;;;;;-147.86;100.00;46184.10;105798;1254;60530;-44
2023/12/09 06:17:37;;;;;;;14.10;7.80;;;;;;;-147.86;100.00;46187.23;105899;1253;60331;-41
2023/12/09 06:20:08;;;;;;;20.00;8.80;;;;;;;-147.86;100.00;46187.63;105895;1252;72576;-41
2023/12/09 06:22:36;;;;;;;16.10;9.00;;;;;;;-147.86;100.00;46188.41;105913;1251;64298;-45
2023/12/09 06:25:04;;;;;;;14.70;8.10;;;;;;;-147.86;100.00;46186.84;105883;1251;72645;-45
2023/12/09 06:27:32;;;;;;;19.30;9.60;;;;;;;-147.86;100.00;46184.49;105936;1254;60853;-44
2023/12/09 06:29:59;;;;;;;18.90;8.80;;;;;;;-147.86;100.00;46184.88;105654;1266;345213;-40
2023/12/09 06:34:00;;;;;;;;;;;;;;;-147.86;100.00;46209.57;102984;1290;600791;-45
2023/12/09 06:36:28;;;;;;;12.90;8.10;;;;;;;-147.86;100.00;46220.15;105137;1264;59324;-46
2023/12/09 06:38:56;;;;;;;18.30;9.30;;;;;;;-147.86;100.00;46211.53;105084;1269;59382;-45
2023/12/09 06:41:24;;;;;;;16.20;9.10;;;;;;;-147.86;100.00;46206.83;105089;1264;71081;-42
2023/12/09 06:43:51;;;;;;;15.90;7.90;;;;;;;-147.86;100.00;46202.91;105095;1269;63988;-43
2023/12/09 06:46:19;;;;;;;16.10;8.40;;;;;;;-147.86;100.00;46201.34;104970;1269;72644;-43
2023/12/09 06:48:46;;;;;;;16.50;8.60;;;;;;;-147.86;100.00;46200.55;105022;1261;227524;-44
2023/12/09 06:51:15;;;;;;;16.10;8.30;;;;;;;-147.86;100.00;46195.07;105237;1263;59281;-45
2023/12/09 06:53:43;;;;;;;16.70;8.70;;;;;;;-147.86;100.00;46197.42;105213;1267;72678;-42
2023/12/09 06:56:19;;;;;;;12.40;7.20;;;;;;;-147.86;100.00;46198.20;105187;1261;65324;-44
2023/12/09 06:58:47;;;;;;;13.60;7.40;;;;;;;-147.86;100.00;46195.85;105254;1261;72294;-42
2023/12/09 07:01:19;;;;;;;13.80;7.90;;;;;;;-147.86;100.00;46197.42;105231;1264;59829;-40
2023/12/09 07:03:48;;;;;;;15.20;7.80;;;;;;;-147.86;100.00;46194.68;105206;1261;59749;-40
2023/12/09 07:06:23;;;;;;;9.10;6.50;;;;;;;-147.86;100.00;46195.46;105213;1261;71837;-40
2023/12/09 07:08:52;;;;;;;15.60;9.40;;;;;;;-147.86;100.00;46195.85;105267;1261;63890;-43
2023/12/09 07:11:21;;;;;;;13.30;7.30;;;;;;;-147.86;100.00;46196.64;105227;1267;71733;-41
2023/12/09 07:13:49;;;;;;;15.30;9.00;;;;;;;-147.86;100.00;46197.03;105228;1267;59720;-41
2023/12/09 07:16:16;;;;;;;22.70;12.60;;;;;;;-147.86;100.00;46192.72;105209;1261;59723;-46
2023/12/09 07:18:46;;;;;;;15.80;8.00;;;;;;;-147.86;100.00;46198.21;105208;1261;71735;-42
2023/12/09 07:21:14;;;;;;;16.60;9.70;;;;;;;-147.86;100.00;46198.99;105244;1261;63542;-41
2023/12/09 07:23:45;;;;;;;20.40;9.20;;;;;;;-147.86;100.00;46198.99;105205;1264;71395;-44
2023/12/09 07:26:13;;;;;;;14.80;9.00;;;;;;;-147.86;100.00;46200.95;105223;1264;59638;-44
2023/12/09 07:28:40;;;;;;;14.70;9.40;;;;;;;-147.86;100.00;46196.64;105197;1261;59685;-43
2023/12/09 07:31:08;;;;;;;12.60;8.10;;;;;;;-147.86;100.00;46200.95;105237;1270;71807;-42
2023/12/09 07:33:36;;;;;;;12.10;7.70;;;;;;;-147.86;100.00;46200.55;105106;1261;64518;-42
2023/12/09 07:36:04;;;;;;;14.10;7.70;;;;;;;-147.86;100.00;46202.13;105250;1267;71452;-43
2023/12/09 07:38:31;;;;;;;15.50;10.60;;;;;;;-147.86;100.00;46200.16;105214;1263;59905;-42
2023/12/09 07:40:59;;;;;;;14.90;8.60;;;;;;;-147.86;100.00;46201.73;105226;1268;59624;-44
2023/12/09 07:43:27;;;;;;;14.10;8.90;;;;;;;-147.86;100.00;46204.08;105210;1265;71691;-40
2023/12/09 07:45:55;;;;;;;16.90;9.40;;;;;;;-147.86;100.00;46203.70;105155;1264;65269;-39
2023/12/09 07:48:23;;;;;;;13.60;8.40;;;;;;;-147.86;100.00;46204.87;105725;1258;71847;-40
2023/12/09 07:50:51;;;;;;;13.40;8.20;;;;;;;-147.86;100.00;46206.43;105681;1254;59771;-41
2023/12/09 07:53:19;;;;;;;12.50;8.20;;;;;;;-147.86;100.00;46206.04;105736;1259;59550;-39
2023/12/09 07:55:47;;;;;;;11.00;7.60;;;;;;;-147.86;100.00;46208.39;105677;1260;73096;-43
2023/12/09 07:58:15;;;;;;;13.90;8.70;;;;;;;-147.86;100.00;46207.22;105702;1259;63267;-47
2023/12/09 08:00:43;;;;;;;10.60;7.20;;;;;;;-147.86;100.00;46212.31;105683;1254;72639;-45
2023/12/09 08:03:12;;;;;;;11.80;7.20;;;;;;;-147.86;100.00;46210.75;105472;1259;60843;-40
2023/12/09 08:05:40;;;;;;;16.90;7.70;;;;;;;-147.86;100.00;46211.92;105334;1259;59727;-45
2023/12/09 08:08:10;;;;;;;13.70;7.50;;;;;;;-147.86;100.00;46213.49;105537;1255;72032;-43
2023/12/09 08:10:38;;;;;;;13.10;7.50;;;;;;;-147.86;100.00;46213.49;105659;1258;65178;-42
2023/12/09 08:13:08;;;;;;;11.70;8.00;;;;;;;-147.86;100.00;46214.66;105970;1253;72652;-46
2023/12/09 08:15:36;;;;;;;12.70;7.70;;;;;;;-147.86;100.00;46217.02;105922;1257;59739;-48
2023/12/09 08:18:04;;;;;;;14.30;8.70;;;;;;;-147.86;100.00;46218.59;106000;1257;59625;-43
2023/12/09 08:20:34;;;;;;;13.00;7.50;;;;;;;-147.86;100.00;46220.54;105930;1251;71726;-45
2023/12/09 08:23:03;;;;;;;9.00;6.60;;;;;;;-147.86;100.00;46221.32;105969;1256;64070;-42
2023/12/09 08:25:31;;;;;;;18.80;10.90;;;;;;;-147.86;100.00;46220.93;105945;1257;72759;-42
2023/12/09 08:27:58;;;;;;;13.10;7.90;;;;;;;-147.86;100.00;46222.11;105884;1251;59604;-44
2023/12/09 08:30:26;;;;;;;10.50;6.50;;;;;;;-147.86;100.00;46225.64;105924;1252;59535;-41
2023/12/09 08:32:54;;;;;;;13.10;7.10;;;;;;;-147.86;100.00;46229.16;105992;1257;72201;-40
2023/12/09 08:35:22;;;;;;;10.50;6.40;;;;;;;-147.86;100.00;46227.60;105944;1257;64091;-41
2023/12/09 08:37:50;;;;;;;15.00;8.10;;;;;;;-147.86;100.00;46231.12;105957;1254;71365;-41
2023/12/09 08:40:18;;;;;;;12.90;7.70;;;;;;;-147.86;100.00;46231.12;105936;1254;59643;-41
2023/12/09 08:42:46;;;;;;;10.60;7.60;;;;;;;-147.86;100.00;46236.61;105925;1251;59560;-43
2023/12/09 08:45:15;;;;;;;12.40;8.10;;;;;;;-147.86;100.00;46239.36;105916;1252;71779;-43
2023/12/09 08:47:44;;;;;;;12.80;6.90;;;;;;;-147.86;100.00;46240.92;105936;1256;63943;-43
2023/12/09 08:50:13;;;;;;;13.20;7.10;;;;;;;-147.86;100.00;46242.49;105979;1254;71430;-42
2023/12/09 08:52:52;;;;;;;9.20;7.10;;;;;;;-147.86;100.00;46246.80;105913;1257;59691;-42
2023/12/09 08:55:21;;;;;;;10.50;6.70;;;;;;;-147.86;100.00;46248.76;106003;1256;59612;-45
2023/12/09 08:57:51;;;;;;;11.00;6.50;;;;;;;-147.86;100.00;46249.15;106101;1251;70759;-43
2023/12/09 09:00:20;;;;;;;8.80;6.20;;;;;;;-147.86;100.00;46251.11;105964;1256;64024;-41
2023/12/09 09:02:50;;;;;;;11.60;7.00;;;;;;;-147.86;100.00;46253.85;105934;1257;71425;-38
2023/12/09 09:05:17;;;;;;;13.10;7.50;;;;;;;-147.86;100.00;46256.60;105975;1254;59621;-40
2023/12/09 09:07:46;;;;;;;9.10;5.60;;;;;;;-147.86;100.00;46258.16;105984;1256;59535;-43
2023/12/09 09:10:14;;;;;;;26.10;15.30;;;;;;;-147.86;100.00;46260.91;105891;1253;71023;-43
2023/12/09 09:12:43;;;;;;;10.30;7.50;;;;;;;-147.86;100.00;46263.65;105974;1250;63925;-43
2023/12/09 09:15:12;;;;;;;13.50;8.80;;;;;;;-147.86;100.00;46266.79;105954;1251;73094;-43
2023/12/09 09:17:40;;;;;;;9.20;6.90;;;;;;;-147.86;100.00;46267.57;105954;1252;59685;-42
2023/12/09 09:20:10;;;;;;;7.00;5.10;;;;;;;-147.86;100.00;46270.31;105973;1256;59547;-41
2023/12/09 09:22:38;;;;;;;7.00;5.50;;;;;;;-147.86;100.00;46274.62;105963;1257;72993;-41
2023/12/09 09:25:06;;;;;;;9.60;6.70;;;;;;;-147.86;100.00;46273.84;105920;1252;63226;-42
2023/12/09 09:27:34;;;;;;;10.00;6.90;;;;;;;-147.86;100.00;46276.58;105988;1253;71453;-42
2023/12/09 09:30:03;;;;;;;9.90;6.40;;;;;;;-147.86;100.00;46273.84;105943;1257;59716;-42
2023/12/09 09:32:31;;;;;;;8.60;6.30;;;;;;;-147.86;100.00;46276.19;105962;1256;59512;-43
2023/12/09 09:34:59;;;;;;;8.70;6.00;;;;;;;-147.86;100.00;46274.62;105944;1252;71723;-43
2023/12/09 09:37:28;;;;;;;8.60;6.00;;;;;;;-147.86;100.00;46274.23;105987;1252;64141;-42
2023/12/09 09:39:55;;;;;;;9.80;7.10;;;;;;;-147.86;100.00;46272.66;106001;1257;72619;-42
2023/12/09 09:42:31;;;;;;;9.40;6.20;;;;;;;-147.86;100.00;46269.53;105913;1254;59598;-40
2023/12/09 09:45:21;;;;;;;9.10;5.70;;;;;;;-147.86;100.00;46264.04;105917;1251;59951;-44
2023/12/09 09:47:55;;;;;;;8.60;6.10;;;;;;;-147.86;100.00;46259.73;105975;1251;72199;-43
2023/12/09 09:50:26;;;;;;;11.40;6.50;;;;;;;-147.86;100.00;46259.73;105946;1256;65300;-42
2023/12/09 09:52:54;;;;;;;8.10;6.80;;;;;;;-147.86;100.00;46256.20;105941;1251;71653;-42
2023/12/09 09:55:23;;;;;;;6.50;5.40;;;;;;;-147.86;100.00;46250.32;105708;1253;59740;-42
2023/12/09 09:57:50;;;;;;;5.80;5.20;;;;;;;-147.86;100.00;46244.45;105982;1251;59988;-41
2023/12/09 10:00:19;;;;;;;6.30;5.60;;;;;;;-147.86;100.00;46240.92;105923;1251;71798;-44
2023/12/09 10:02:48;;;;;;;7.00;6.10;;;;;;;-147.86;100.00;46234.26;105913;1251;63909;-43
2023/12/09 10:05:20;;;;;;;6.90;5.30;;;;;;;-147.86;100.00;46229.95;105965;1256;71684;-40
2023/12/09 10:07:48;;;;;;;7.00;5.20;;;;;;;-147.86;100.00;46229.95;105937;1254;59815;-42
2023/12/09 10:10:18;;;;;;;6.40;5.10;;;;;;;-147.86;100.00;46224.46;105909;1257;59612;-46
2023/12/09 10:12:47;;;;;;;7.10;5.70;;;;;;;-147.86;100.00;46218.58;105911;1256;72999;-41
2023/12/09 10:15:15;;;;;;;7.00;5.70;;;;;;;-147.86;100.00;46217.02;105936;1251;63928;-39
2023/12/09 10:17:42;;;;;;;6.60;5.70;;;;;;;-147.86;100.00;46213.88;105906;1257;71378;-39
2023/12/09 10:20:11;;;;;;;6.00;5.00;;;;;;;-147.86;100.00;46208.00;105946;1254;59726;-44
2023/12/09 10:22:38;;;;;;;8.10;4.80;;;;;;;-147.86;100.00;46207.21;105965;1257;59606;-39
2023/12/09 10:25:08;;;;;;;8.50;5.60;;;;;;;-147.86;100.00;46202.91;105956;1252;75486;-44
2023/12/09 10:27:40;;;;;;;7.80;5.40;;;;;;;-147.86;100.00;46202.52;105944;1257;66651;-45
2023/12/09 10:30:08;;;;;;;7.80;6.20;;;;;;;-147.86;100.00;46200.55;105963;1255;71331;-41
2023/12/09 10:32:36;;;;;;;9.50;6.40;;;;;;;-147.86;100.00;46198.21;105827;1257;60904;-43
2023/12/09 10:35:04;;;;;;;7.30;5.70;;;;;;;-147.86;100.00;46193.89;105890;1256;59670;-42
2023/12/09 10:37:32;;;;;;;10.60;7.40;;;;;;;-147.86;100.00;46185.66;105919;1256;72952;-43
2023/12/09 10:40:01;;;;;;;16.30;7.20;;;;;;;-147.86;100.00;46180.18;105941;1251;63919;-42
2023/12/09 10:42:29;;;;;;;7.90;6.80;;;;;;;-147.86;100.00;46179.01;105901;1257;71692;-42
2023/12/09 10:44:57;;;;;;;10.50;7.50;;;;;;;-147.86;100.00;46176.65;105934;1257;60647;-44
2023/12/09 10:47:25;;;;;;;7.70;6.10;;;;;;;-147.86;100.00;46176.65;105895;1257;60504;-41
2023/12/09 10:49:53;;;;;;;9.30;7.40;;;;;;;-147.86;100.00;46176.26;105932;1251;75271;-43
2023/12/09 10:52:21;;;;;;;8.70;6.80;;;;;;;-147.86;100.00;46173.52;105698;1251;64037;-45
2023/12/09 10:54:48;;;;;;;9.10;6.70;;;;;;;-147.86;100.00;46174.70;105925;1257;72643;-42
2023/12/09 10:57:16;;;;;;;15.00;8.30;;;;;;;-147.86;100.00;46173.91;105896;1251;60500;-44
2023/12/09 10:59:44;;;;;;;14.00;7.70;;;;;;;-147.86;100.00;46175.09;105923;1256;60677;-44
2023/12/09 11:02:11;;;;;;;8.10;6.10;;;;;;;-147.86;100.00;46175.48;105854;1252;72636;-41
2023/12/09 11:04:39;;;;;;;9.80;7.30;;;;;;;-147.86;100.00;46173.13;105720;1251;63591;-42